createdAt,value
2018-08-04T00:00:19.094Z,6.40
2018-08-04T00:01:19.157Z,6.40
2018-08-04T00:02:19.219Z,6.30
2018-08-04T00:03:19.283Z,6.30
2018-08-04T00:04:19.345Z,6.10
2018-08-04T00:05:19.408Z,6.20
2018-08-04T00:06:19.471Z,6.50
2018-08-04T00:07:19.535Z,6.50
2018-08-04T00:08:19.597Z,6.40
2018-08-04T00:09:19.661Z,6.40
2018-08-04T00:10:19.723Z,6.70
2018-08-04T00:11:19.786Z,6.10
2018-08-04T00:12:19.850Z,6.10
2018-08-04T00:13:19.912Z,6.20
2018-08-04T00:14:19.977Z,5.70
2018-08-04T00:15:20.039Z,6.30
2018-08-04T00:16:20.102Z,6.20
2018-08-04T00:17:20.162Z,5.90
2018-08-04T00:18:20.227Z,6.30
2018-08-04T00:19:20.290Z,6.10
2018-08-04T00:20:20.354Z,6.10
2018-08-04T00:21:20.415Z,6.40
2018-08-04T00:22:20.481Z,6.00
2018-08-04T00:23:20.541Z,6.60
2018-08-04T00:24:20.605Z,6.30
2018-08-04T00:25:20.666Z,6.50
2018-08-04T00:26:20.730Z,6.20
2018-08-04T00:27:20.844Z,6.40
2018-08-04T00:28:20.856Z,6.50
2018-08-04T00:29:20.918Z,6.00
2018-08-04T00:30:20.981Z,6.50
2018-08-04T00:31:21.045Z,6.10
2018-08-04T00:32:21.107Z,6.60
2018-08-04T00:33:21.169Z,6.60
2018-08-04T00:34:21.232Z,6.10
2018-08-04T00:35:21.296Z,6.20
2018-08-04T00:36:21.358Z,6.40
2018-08-04T00:37:21.420Z,6.10
2018-08-04T00:38:21.483Z,6.50
2018-08-04T00:39:21.547Z,6.60
2018-08-04T00:40:21.613Z,6.60
2018-08-04T00:41:21.672Z,6.60
2018-08-04T00:42:21.735Z,6.40
2018-08-04T00:43:21.797Z,6.20
2018-08-04T00:44:21.861Z,6.70
2018-08-04T00:45:21.922Z,6.70
2018-08-04T00:46:21.984Z,6.50
2018-08-04T00:47:22.049Z,6.20
2018-08-04T00:48:22.112Z,6.40
2018-08-04T00:49:22.173Z,6.80
2018-08-04T00:50:22.253Z,6.90
2018-08-04T00:51:22.298Z,6.60
2018-08-04T00:52:22.360Z,6.30
2018-08-04T00:53:22.422Z,6.30
2018-08-04T00:54:22.485Z,6.50
2018-08-04T00:55:22.565Z,6.70
2018-08-04T00:56:22.611Z,6.70
2018-08-04T00:57:22.676Z,6.80
2018-08-04T00:58:22.735Z,6.50
2018-08-04T00:59:22.799Z,6.70
2018-08-04T01:00:22.862Z,6.70
2018-08-04T01:01:22.922Z,6.70
2018-08-04T01:02:22.987Z,6.70
2018-08-04T01:03:23.052Z,6.50
2018-08-04T01:04:23.110Z,6.70
2018-08-04T01:05:23.172Z,6.30
2018-08-04T01:06:23.235Z,6.20
2018-08-04T01:07:23.297Z,6.40
2018-08-04T01:08:23.361Z,6.70
2018-08-04T01:09:23.422Z,6.20
2018-08-04T01:10:23.484Z,7.10
2018-08-04T01:11:23.547Z,6.70
2018-08-04T01:12:23.610Z,6.00
2018-08-04T01:13:23.672Z,6.40
2018-08-04T01:14:23.738Z,6.40
2018-08-04T01:15:23.797Z,7.00
2018-08-04T01:16:23.861Z,6.30
2018-08-04T01:17:23.921Z,6.40
2018-08-04T01:18:23.984Z,6.30
2018-08-04T01:19:24.046Z,6.40
2018-08-04T01:20:24.109Z,6.30
2018-08-04T01:21:24.174Z,6.60
2018-08-04T01:22:24.234Z,6.80
2018-08-04T01:23:24.296Z,7.00
2018-08-04T01:24:24.360Z,6.70
2018-08-04T01:25:24.419Z,6.30
2018-08-04T01:26:24.483Z,6.70
2018-08-04T01:27:24.545Z,6.70
2018-08-04T01:28:24.607Z,6.80
2018-08-04T01:29:24.672Z,6.90
2018-08-04T01:30:24.731Z,7.20
2018-08-04T01:31:24.802Z,6.80
2018-08-04T01:32:24.858Z,6.90
2018-08-04T01:33:24.918Z,6.50
2018-08-04T01:34:24.981Z,6.60
2018-08-04T01:35:25.047Z,6.80
2018-08-04T01:36:25.107Z,6.90
2018-08-04T01:37:25.167Z,7.10
2018-08-04T01:38:25.231Z,6.80
2018-08-04T01:39:25.292Z,6.90
2018-08-04T01:40:25.357Z,6.20
2018-08-04T01:41:25.416Z,7.20
2018-08-04T01:42:25.480Z,7.00
2018-08-04T01:43:25.540Z,6.90
2018-08-04T01:44:25.604Z,6.80
2018-08-04T01:45:25.665Z,7.40
2018-08-04T01:46:25.727Z,7.10
2018-08-04T01:47:25.790Z,6.40
2018-08-04T01:48:25.853Z,6.60
2018-08-04T01:49:25.915Z,6.80
2018-08-04T01:50:25.976Z,7.30
2018-08-04T01:51:26.039Z,7.00
2018-08-04T01:52:26.100Z,7.00
2018-08-04T01:53:26.163Z,7.80
2018-08-04T01:54:26.227Z,7.70
2018-08-04T01:55:26.287Z,7.40
2018-08-04T01:56:26.349Z,7.00
2018-08-04T01:57:26.411Z,7.10
2018-08-04T01:58:26.473Z,7.20
2018-08-04T01:59:26.536Z,6.90
2018-08-04T02:00:26.597Z,7.50
2018-08-04T02:01:26.659Z,7.00
2018-08-04T02:02:26.722Z,7.10
2018-08-04T02:03:26.784Z,6.70
2018-08-04T02:04:26.846Z,7.00
2018-08-04T02:05:26.907Z,7.10
2018-08-04T02:06:26.971Z,6.80
2018-08-04T02:07:27.033Z,7.00
2018-08-04T02:08:27.100Z,7.00
2018-08-04T02:09:27.156Z,7.20
2018-08-04T02:10:27.218Z,7.00
2018-08-04T02:11:27.280Z,7.10
2018-08-04T02:12:27.342Z,7.00
2018-08-04T02:13:27.402Z,7.30
2018-08-04T02:14:27.465Z,7.30
2018-08-04T02:15:27.778Z,7.10
2018-08-04T02:16:27.591Z,7.40
2018-08-04T02:17:27.653Z,7.00
2018-08-04T02:18:27.715Z,7.30
2018-08-04T02:19:27.777Z,7.30
2018-08-04T02:20:27.838Z,7.10
2018-08-04T02:21:27.902Z,7.50
2018-08-04T02:22:27.962Z,7.40
2018-08-04T02:23:28.024Z,7.50
2018-08-04T02:24:28.095Z,7.50
2018-08-04T02:25:28.147Z,7.80
2018-08-04T02:26:28.209Z,7.70
2018-08-04T02:27:28.272Z,7.60
2018-08-04T02:28:28.335Z,7.30
2018-08-04T02:29:28.395Z,7.40
2018-08-04T02:30:28.458Z,7.10
2018-08-04T02:31:28.521Z,7.30
2018-08-04T02:32:28.581Z,7.20
2018-08-04T02:33:28.645Z,7.20
2018-08-04T02:34:28.706Z,7.30
2018-08-04T02:35:28.768Z,7.30
2018-08-04T02:36:28.830Z,7.20
2018-08-04T02:37:28.890Z,7.20
2018-08-04T02:38:28.952Z,7.30
2018-08-04T02:39:29.016Z,7.30
2018-08-04T02:40:29.077Z,6.80
2018-08-04T02:41:29.138Z,7.50
2018-08-04T02:42:29.202Z,7.30
2018-08-04T02:43:29.272Z,7.50
2018-08-04T02:44:29.323Z,7.20
2018-08-04T02:45:29.387Z,7.40
2018-08-04T02:46:29.449Z,7.50
2018-08-04T02:47:29.510Z,7.40
2018-08-04T02:48:29.571Z,6.80
2018-08-04T02:49:29.633Z,6.90
2018-08-04T02:50:29.945Z,7.30
2018-08-04T02:51:29.759Z,7.40
2018-08-04T02:52:29.824Z,7.40
2018-08-04T02:53:29.880Z,7.40
2018-08-04T02:54:29.942Z,7.60
2018-08-04T02:55:30.154Z,7.60
2018-08-04T02:56:30.066Z,7.40
2018-08-04T02:57:30.127Z,7.20
2018-08-04T02:58:30.193Z,7.40
2018-08-04T02:59:30.252Z,7.30
2018-08-04T03:00:30.313Z,7.50
2018-08-04T03:01:30.375Z,7.40
2018-08-04T03:02:30.435Z,7.60
2018-08-04T03:03:30.499Z,7.80
2018-08-04T03:04:30.561Z,6.90
2018-08-04T03:05:30.626Z,7.60
2018-08-04T03:06:30.684Z,7.50
2018-08-04T03:07:30.744Z,7.30
2018-08-04T03:08:30.852Z,7.10
2018-08-04T03:09:30.869Z,7.30
2018-08-04T03:10:30.932Z,7.70
2018-08-04T03:11:30.994Z,8.00
2018-08-04T03:12:31.055Z,7.10
2018-08-04T03:13:31.116Z,7.10
2018-08-04T03:14:31.179Z,7.60
2018-08-04T03:15:31.240Z,7.10
2018-08-04T03:16:31.303Z,6.80
2018-08-04T03:17:31.364Z,7.10
2018-08-04T03:18:31.426Z,7.50
2018-08-04T03:19:31.488Z,7.50
2018-08-04T03:20:31.550Z,7.20
2018-08-04T03:21:31.612Z,7.20
2018-08-04T03:22:31.677Z,7.80
2018-08-04T03:23:31.735Z,7.50
2018-08-04T03:24:31.797Z,7.60
2018-08-04T03:25:31.860Z,7.40
2018-08-04T03:26:31.921Z,7.80
2018-08-04T03:27:31.981Z,8.10
2018-08-04T03:28:32.047Z,7.50
2018-08-04T03:29:32.107Z,7.00
2018-08-04T03:30:32.166Z,7.30
2018-08-04T03:31:32.380Z,7.70
2018-08-04T03:32:32.291Z,7.80
2018-08-04T03:33:32.352Z,7.50
2018-08-04T03:34:32.414Z,7.20
2018-08-04T03:35:32.476Z,7.20
2018-08-04T03:36:32.537Z,7.20
2018-08-04T03:37:32.598Z,7.50
2018-08-04T03:38:32.662Z,7.40
2018-08-04T03:39:32.722Z,7.50
2018-08-04T03:40:32.784Z,8.50
2018-08-04T03:41:32.845Z,7.70
2018-08-04T03:42:32.907Z,8.10
2018-08-04T03:43:32.971Z,7.30
2018-08-04T03:44:33.033Z,7.90
2018-08-04T03:45:33.093Z,7.80
2018-08-04T03:46:33.155Z,7.40
2018-08-04T03:47:33.217Z,7.70
2018-08-04T03:48:33.279Z,8.00
2018-08-04T03:49:33.340Z,7.70
2018-08-04T03:50:33.405Z,7.80
2018-08-04T03:51:33.465Z,7.70
2018-08-04T03:52:33.528Z,7.40
2018-08-04T03:53:33.588Z,7.70
2018-08-04T03:54:33.653Z,7.10
2018-08-04T03:55:33.713Z,7.40
2018-08-04T03:56:33.774Z,8.00
2018-08-04T03:57:33.835Z,7.50
2018-08-04T03:58:33.897Z,8.00
2018-08-04T03:59:33.975Z,7.80
2018-08-04T04:00:34.022Z,7.60
2018-08-04T04:01:34.084Z,7.20
2018-08-04T04:02:34.147Z,7.40
2018-08-04T04:03:34.208Z,7.60
2018-08-04T04:04:34.275Z,7.70
2018-08-04T04:05:34.332Z,7.60
2018-08-04T04:06:34.414Z,7.60
2018-08-04T04:07:34.456Z,7.90
2018-08-04T04:08:34.518Z,7.50
2018-08-04T04:09:34.583Z,7.70
2018-08-04T04:10:34.641Z,7.90
2018-08-04T04:11:34.703Z,7.70
2018-08-04T04:12:34.765Z,7.10
2018-08-04T04:13:34.826Z,7.70
2018-08-04T04:14:34.890Z,7.90
2018-08-04T04:15:34.950Z,8.10
2018-08-04T04:16:35.013Z,7.70
2018-08-04T04:17:35.074Z,8.20
2018-08-04T04:18:35.145Z,8.30
2018-08-04T04:19:35.198Z,7.90
2018-08-04T04:20:35.260Z,7.90
2018-08-04T04:21:35.324Z,8.00
2018-08-04T04:22:35.383Z,8.10
2018-08-04T04:23:35.446Z,7.90
2018-08-04T04:24:35.508Z,8.10
2018-08-04T04:25:35.570Z,8.20
2018-08-04T04:26:35.632Z,8.00
2018-08-04T04:27:35.695Z,8.10
2018-08-04T04:28:35.756Z,8.60
2018-08-04T04:29:35.817Z,8.40
2018-08-04T04:30:35.881Z,8.00
2018-08-04T04:31:36.193Z,7.90
2018-08-04T04:32:36.006Z,8.00
2018-08-04T04:33:36.066Z,8.20
2018-08-04T04:34:36.128Z,8.10
2018-08-04T04:35:36.189Z,8.40
2018-08-04T04:36:36.251Z,7.70
2018-08-04T04:37:36.313Z,8.10
2018-08-04T04:38:36.375Z,8.10
2018-08-04T04:39:36.437Z,8.10
2018-08-04T04:40:36.499Z,8.20
2018-08-04T04:41:36.563Z,7.90
2018-08-04T04:42:36.622Z,8.20
2018-08-04T04:43:36.685Z,8.30
2018-08-04T04:44:36.747Z,8.40
2018-08-04T04:45:36.810Z,7.90
2018-08-04T04:46:36.871Z,7.90
2018-08-04T04:47:36.931Z,7.50
2018-08-04T04:48:37.092Z,7.90
2018-08-04T04:49:37.056Z,7.70
2018-08-04T04:50:37.117Z,7.40
2018-08-04T04:51:37.180Z,7.90
2018-08-04T04:52:37.244Z,7.60
2018-08-04T04:53:37.304Z,8.00
2018-08-04T04:54:37.365Z,8.00
2018-08-04T04:55:37.428Z,7.60
2018-08-04T04:56:37.489Z,7.40
2018-08-04T04:57:37.551Z,7.80
2018-08-04T04:58:37.613Z,7.90
2018-08-04T04:59:37.676Z,8.00
2018-08-04T05:00:37.738Z,8.00
2018-08-04T05:01:37.799Z,8.30
2018-08-04T05:02:37.862Z,8.00
2018-08-04T05:03:37.926Z,7.20
2018-08-04T05:04:39.165Z,8.00
2018-08-04T05:05:38.048Z,7.60
2018-08-04T05:06:38.108Z,7.50
2018-08-04T05:07:38.171Z,8.00
2018-08-04T05:08:38.273Z,7.80
2018-08-04T05:09:38.296Z,7.90
2018-08-04T05:10:38.356Z,7.70
2018-08-04T05:11:38.669Z,7.50
2018-08-04T05:12:38.481Z,7.60
2018-08-04T05:13:38.542Z,7.90
2018-08-04T05:14:38.605Z,7.70
2018-08-04T05:15:38.666Z,7.40
2018-08-04T05:16:38.730Z,7.40
2018-08-04T05:17:38.790Z,7.50
2018-08-04T05:18:38.852Z,7.90
2018-08-04T05:19:38.914Z,7.20
2018-08-04T05:20:38.976Z,7.30
2018-08-04T05:21:39.057Z,7.10
2018-08-04T05:22:39.100Z,7.50
2018-08-04T05:23:39.163Z,7.50
2018-08-04T05:24:39.225Z,7.70
2018-08-04T05:25:39.288Z,7.30
2018-08-04T05:26:39.352Z,7.40
2018-08-04T05:27:39.411Z,8.20
2018-08-04T05:28:39.474Z,7.00
2018-08-04T05:29:39.538Z,7.50
2018-08-04T05:30:39.599Z,7.30
2018-08-04T05:31:39.661Z,7.50
2018-08-04T05:32:39.723Z,7.30
2018-08-04T05:33:39.784Z,7.70
2018-08-04T05:34:39.848Z,7.60
2018-08-04T05:35:39.912Z,7.50
2018-08-04T05:36:39.972Z,7.20
2018-08-04T05:37:40.035Z,7.70
2018-08-04T05:38:40.096Z,7.30
2018-08-04T05:39:40.158Z,7.40
2018-08-04T05:40:40.221Z,7.50
2018-08-04T05:41:40.282Z,7.40
2018-08-04T05:42:40.349Z,7.80
2018-08-04T05:43:40.464Z,7.80
2018-08-04T05:44:40.470Z,7.00
2018-08-04T05:45:40.533Z,7.30
2018-08-04T05:46:40.595Z,8.10
2018-08-04T05:47:40.658Z,7.90
2018-08-04T05:48:40.719Z,7.70
2018-08-04T05:49:40.782Z,7.40
2018-08-04T05:50:40.844Z,8.00
2018-08-04T05:51:40.906Z,7.50
2018-08-04T05:52:41.221Z,7.10
2018-08-04T05:53:41.031Z,7.00
2018-08-04T05:54:41.095Z,7.20
2018-08-04T05:55:41.156Z,7.80
2018-08-04T05:56:41.219Z,7.60
2018-08-04T05:57:41.280Z,7.80
2018-08-04T05:58:41.348Z,6.90
2018-08-04T05:59:41.408Z,7.00
2018-08-04T06:00:41.476Z,7.30
2018-08-04T06:01:41.565Z,7.60
2018-08-04T06:02:41.595Z,7.40
2018-08-04T06:03:41.659Z,7.00
2018-08-04T06:04:41.724Z,7.20
2018-08-04T06:05:41.784Z,7.20
2018-08-04T06:06:41.848Z,7.30
2018-08-04T06:07:41.910Z,7.50
2018-08-04T06:08:41.973Z,7.60
2018-08-04T06:09:42.035Z,7.80
2018-08-04T06:10:42.098Z,7.20
2018-08-04T06:11:42.162Z,7.60
2018-08-04T06:12:42.225Z,7.90
2018-08-04T06:13:42.288Z,7.90
2018-08-04T06:14:42.350Z,7.90
2018-08-04T06:15:42.414Z,6.80
2018-08-04T06:16:42.477Z,7.60
2018-08-04T06:17:42.543Z,7.40
2018-08-04T06:18:42.604Z,7.60
2018-08-04T06:19:42.667Z,8.00
2018-08-04T06:20:42.739Z,6.80
2018-08-04T06:21:42.796Z,7.60
2018-08-04T06:22:42.857Z,7.40
2018-08-04T06:23:42.922Z,7.00
2018-08-04T06:24:42.991Z,7.10
2018-08-04T06:25:43.055Z,7.90
2018-08-04T06:26:43.112Z,7.10
2018-08-04T06:27:43.326Z,7.40
2018-08-04T06:28:43.239Z,7.10
2018-08-04T06:29:43.302Z,6.80
2018-08-04T06:30:43.367Z,6.70
2018-08-04T06:31:43.430Z,7.10
2018-08-04T06:32:43.746Z,7.40
2018-08-04T06:33:43.572Z,7.60
2018-08-04T06:34:43.622Z,7.70
2018-08-04T06:35:43.687Z,7.70
2018-08-04T06:36:43.750Z,7.50
2018-08-04T06:37:43.812Z,7.50
2018-08-04T06:38:43.878Z,7.30
2018-08-04T06:39:43.942Z,7.20
2018-08-04T06:40:44.005Z,7.40
2018-08-04T06:41:44.146Z,6.50
2018-08-04T06:42:44.132Z,6.70
2018-08-04T06:43:44.216Z,7.30
2018-08-04T06:44:44.261Z,7.20
2018-08-04T06:45:44.329Z,7.40
2018-08-04T06:46:44.388Z,6.90
2018-08-04T06:47:44.703Z,7.10
2018-08-04T06:48:44.518Z,7.20
2018-08-04T06:49:44.580Z,7.40
2018-08-04T06:50:44.645Z,6.90
2018-08-04T06:51:44.710Z,7.00
2018-08-04T06:52:45.077Z,6.80
2018-08-04T06:53:44.837Z,7.00
2018-08-04T06:54:44.901Z,6.90
2018-08-04T06:55:44.965Z,6.70
2018-08-04T06:56:45.031Z,7.20
2018-08-04T06:57:45.097Z,7.10
2018-08-04T06:58:45.159Z,7.00
2018-08-04T06:59:45.223Z,7.10
2018-08-04T07:00:45.287Z,6.60
2018-08-04T07:01:45.353Z,6.70
2018-08-04T07:02:45.416Z,6.70
2018-08-04T07:03:45.481Z,6.90
2018-08-04T07:04:45.546Z,6.80
2018-08-04T07:05:45.609Z,6.50
2018-08-04T07:06:45.677Z,7.10
2018-08-04T07:07:45.739Z,6.80
2018-08-04T07:08:45.804Z,6.60
2018-08-04T07:09:46.436Z,6.90
2018-08-04T07:10:45.934Z,6.60
2018-08-04T07:11:45.999Z,6.60
2018-08-04T07:12:46.063Z,6.30
2018-08-04T07:13:46.138Z,6.90
2018-08-04T07:14:46.192Z,6.90
2018-08-04T07:16:28.700Z,6.80
2018-08-04T07:17:28.765Z,6.10
2018-08-04T07:18:28.830Z,6.50
2018-08-04T07:19:28.896Z,6.90
2018-08-04T07:20:28.961Z,7.00
2018-08-04T07:21:29.451Z,6.70
2018-08-04T07:22:29.089Z,7.00
2018-08-04T07:23:29.156Z,6.50
2018-08-04T07:24:29.220Z,6.50
2018-08-04T07:25:29.284Z,6.70
2018-08-04T07:26:29.353Z,6.30
2018-08-04T07:27:29.417Z,6.50
2018-08-04T07:28:29.481Z,6.60
2018-08-04T07:29:29.547Z,6.10
2018-08-04T07:30:29.614Z,6.70
2018-08-04T07:31:29.679Z,7.30
2018-08-04T07:32:29.744Z,7.00
2018-08-04T07:33:29.809Z,6.90
2018-08-04T07:34:29.875Z,6.90
2018-08-04T07:35:29.944Z,6.80
2018-08-04T07:36:30.007Z,6.60
2018-08-04T07:37:30.073Z,6.60
2018-08-04T07:38:30.141Z,6.10
2018-08-04T07:39:30.728Z,6.50
2018-08-04T07:40:30.897Z,6.60
2018-08-04T07:41:31.134Z,6.50
2018-08-04T07:42:31.219Z,6.80
2018-08-04T07:43:30.473Z,6.60
2018-08-04T07:44:30.541Z,6.50
2018-08-04T07:45:30.607Z,6.90
2018-08-04T07:46:30.675Z,6.40
2018-08-04T07:47:30.759Z,6.40
2018-08-04T07:48:30.809Z,6.10
2018-08-04T07:49:30.875Z,7.10
2018-08-04T07:50:30.943Z,6.50
2018-08-04T07:51:31.011Z,6.20
2018-08-04T07:52:31.077Z,7.00
2018-08-04T07:53:31.145Z,6.50
2018-08-04T07:54:31.214Z,7.00
2018-08-04T07:55:31.280Z,6.80
2018-08-04T07:56:31.346Z,7.00
2018-08-04T07:57:31.415Z,7.40
2018-08-04T07:58:31.482Z,6.90
2018-08-04T07:59:31.609Z,7.00
2018-08-04T08:00:31.621Z,6.50
2018-08-04T08:01:31.684Z,6.80
2018-08-04T08:02:31.752Z,6.70
2018-08-04T08:03:31.821Z,6.80
2018-08-04T08:04:31.891Z,7.10
2018-08-04T08:05:31.957Z,6.50
2018-08-04T08:06:32.024Z,6.80
2018-08-04T08:07:32.092Z,6.90
2018-08-04T08:08:32.160Z,6.90
2018-08-04T08:09:32.839Z,6.50
2018-08-04T08:10:32.353Z,6.70
2018-08-04T08:11:32.364Z,6.80
2018-08-04T08:12:32.429Z,6.90
2018-08-04T08:13:32.497Z,6.90
2018-08-04T08:14:32.566Z,6.30
2018-08-04T08:15:32.634Z,6.70
2018-08-04T08:16:32.700Z,6.70
2018-08-04T08:17:32.767Z,6.70
2018-08-04T08:18:32.837Z,7.10
2018-08-04T08:19:32.978Z,7.10
2018-08-04T08:20:33.504Z,7.30
2018-08-04T08:21:33.037Z,7.10
2018-08-04T08:22:33.105Z,6.90
2018-08-04T08:23:33.173Z,6.70
2018-08-04T08:24:33.240Z,6.60
2018-08-04T08:25:33.308Z,6.60
2018-08-04T08:26:33.376Z,6.90
2018-08-04T08:27:33.444Z,7.20
2018-08-04T08:28:33.659Z,6.90
2018-08-04T08:29:33.577Z,6.60
2018-08-04T08:30:33.645Z,6.90
2018-08-04T08:31:33.768Z,6.20
2018-08-04T08:32:33.784Z,6.90
2018-08-04T08:33:33.849Z,6.70
2018-08-04T08:34:33.915Z,6.50
2018-08-04T08:35:33.983Z,6.80
2018-08-04T08:36:34.636Z,6.50
2018-08-04T08:37:34.668Z,6.80
2018-08-04T08:38:34.188Z,7.00
2018-08-04T08:39:34.256Z,6.70
2018-08-04T08:40:34.322Z,6.80
2018-08-04T08:41:34.391Z,7.00
2018-08-04T08:42:34.458Z,6.60
2018-08-04T08:43:34.526Z,7.00
2018-08-04T08:44:34.593Z,6.80
2018-08-04T08:45:34.661Z,7.00
2018-08-04T08:46:34.731Z,7.10
2018-08-04T08:47:34.801Z,6.70
2018-08-04T08:48:34.866Z,6.70
2018-08-04T08:49:34.937Z,7.00
2018-08-04T08:50:35.004Z,6.70
2018-08-04T08:51:35.072Z,7.00
2018-08-04T08:52:35.140Z,6.80
2018-08-04T08:53:35.318Z,7.00
2018-08-04T08:54:35.277Z,6.80
2018-08-04T08:55:35.346Z,6.40
2018-08-04T08:56:35.415Z,6.90
2018-08-04T08:57:35.485Z,6.90
2018-08-04T08:58:35.552Z,6.70
2018-08-04T08:59:35.621Z,6.60
2018-08-04T09:00:35.689Z,7.20
2018-08-04T09:01:35.759Z,6.80
2018-08-04T09:02:35.830Z,6.50
2018-08-04T09:03:35.897Z,7.20
2018-08-04T09:04:35.966Z,6.50
2018-08-04T09:05:36.037Z,7.20
2018-08-04T09:06:36.105Z,6.40
2018-08-04T09:07:36.176Z,6.60
2018-08-04T09:08:36.249Z,6.30
2018-08-04T09:09:36.314Z,7.00
2018-08-04T09:10:36.387Z,7.00
2018-08-04T09:11:36.454Z,7.00
2018-08-04T09:12:36.524Z,6.70
2018-08-04T09:13:36.593Z,6.80
2018-08-04T09:14:36.666Z,6.70
2018-08-04T09:15:36.768Z,6.50
2018-08-04T09:16:36.802Z,6.80
2018-08-04T09:17:36.872Z,6.90
2018-08-04T09:18:36.943Z,6.90
2018-08-04T09:19:37.014Z,6.60
2018-08-04T09:20:37.081Z,6.40
2018-08-04T09:21:37.157Z,6.90
2018-08-04T09:22:37.222Z,6.70
2018-08-04T09:23:37.294Z,6.80
2018-08-04T09:24:37.363Z,6.60
2018-08-04T09:25:50.170Z,7.00
2018-08-04T09:26:37.501Z,6.40
2018-08-04T09:27:37.571Z,6.90
2018-08-04T09:28:37.639Z,6.60
2018-08-04T09:29:37.710Z,6.70
2018-08-04T09:30:37.779Z,6.20
2018-08-04T09:31:37.849Z,6.10
2018-08-04T09:32:37.918Z,6.10
2018-08-04T09:33:37.988Z,6.90
2018-08-04T09:34:38.062Z,6.70
2018-08-04T09:35:38.129Z,6.40
2018-08-04T09:36:38.199Z,6.50
2018-08-04T09:37:38.268Z,6.70
2018-08-04T09:38:38.337Z,6.30
2018-08-04T09:39:38.409Z,6.20
2018-08-04T09:40:38.477Z,6.20
2018-08-04T09:41:38.549Z,5.90
2018-08-04T09:42:38.619Z,6.50
2018-08-04T09:43:38.688Z,5.80
2018-08-04T09:44:38.758Z,5.10
2018-08-04T09:45:38.828Z,5.30
2018-08-04T09:46:38.899Z,5.20
2018-08-04T09:47:38.970Z,4.80
2018-08-04T09:48:39.039Z,4.80
2018-08-04T09:49:39.108Z,4.80
2018-08-04T09:50:39.182Z,4.70
2018-08-04T09:51:39.252Z,4.80
2018-08-04T09:52:39.343Z,4.90
2018-08-04T09:53:39.392Z,5.30
2018-08-04T09:54:39.462Z,5.20
2018-08-04T09:55:39.533Z,4.80
2018-08-04T09:56:39.603Z,4.80
2018-08-04T09:57:39.678Z,5.20
2018-08-04T09:58:39.750Z,4.80
2018-08-04T09:59:39.871Z,4.80
2018-08-04T10:00:39.885Z,4.80
2018-08-04T10:01:39.955Z,4.70
2018-08-04T10:02:40.026Z,4.80
2018-08-04T10:03:40.098Z,4.60
2018-08-04T10:04:40.167Z,4.60
2018-08-04T10:05:40.237Z,4.40
2018-08-04T10:06:40.311Z,4.50
2018-08-04T10:07:40.378Z,4.70
2018-08-04T10:08:40.449Z,4.50
2018-08-04T10:09:40.518Z,4.70
2018-08-04T10:10:40.588Z,4.90
2018-08-04T10:11:40.658Z,4.40
2018-08-04T10:12:40.727Z,4.70
2018-08-04T10:13:41.048Z,4.50
2018-08-04T10:14:40.868Z,4.60
2018-08-04T10:15:40.939Z,4.50
2018-08-04T10:16:41.008Z,4.40
2018-08-04T10:17:41.082Z,4.50
2018-08-04T10:18:41.148Z,4.50
2018-08-04T10:19:41.222Z,4.70
2018-08-04T10:20:41.312Z,4.60
2018-08-04T10:21:41.358Z,4.60
2018-08-04T10:22:41.428Z,5.00
2018-08-04T10:23:41.499Z,4.60
2018-08-04T10:24:41.569Z,4.70
2018-08-04T10:25:41.640Z,4.30
2018-08-04T10:26:41.711Z,4.30
2018-08-04T10:27:41.788Z,4.40
2018-08-04T10:28:41.853Z,4.50
2018-08-04T10:29:41.924Z,4.30
2018-08-04T10:30:42.011Z,4.10
2018-08-04T10:31:42.069Z,4.40
2018-08-04T10:32:42.244Z,4.70
2018-08-04T10:33:42.213Z,4.10
2018-08-04T10:34:42.285Z,4.30
2018-08-04T10:35:42.419Z,4.60
2018-08-04T10:36:42.430Z,4.80
2018-08-04T10:37:42.504Z,4.30
2018-08-04T10:38:42.583Z,4.30
2018-08-04T10:39:43.285Z,4.50
2018-08-04T10:40:42.728Z,4.40
2018-08-04T10:41:42.800Z,4.60
2018-08-04T10:42:42.874Z,4.50
2018-08-04T10:43:42.949Z,4.30
2018-08-04T10:44:43.022Z,4.80
2018-08-04T10:45:43.098Z,4.40
2018-08-04T10:46:43.173Z,4.30
2018-08-04T10:47:43.249Z,4.30
2018-08-04T10:48:43.321Z,4.00
2018-08-04T10:49:43.397Z,4.40
2018-08-04T10:50:43.473Z,4.80
2018-08-04T10:51:43.549Z,4.40
2018-08-04T10:52:43.622Z,4.30
2018-08-04T10:53:43.698Z,4.40
2018-08-04T10:54:43.775Z,4.30
2018-08-04T10:55:43.852Z,4.60
2018-08-04T10:56:43.927Z,4.60
2018-08-04T10:57:44.002Z,4.40
2018-08-04T10:58:44.081Z,4.30
2018-08-04T10:59:44.155Z,4.30
2018-08-04T11:00:44.230Z,4.50
2018-08-04T11:01:44.306Z,4.60
2018-08-04T11:02:44.386Z,4.30
2018-08-04T11:03:44.468Z,4.60
2018-08-04T11:04:44.536Z,4.40
2018-08-04T11:05:44.611Z,4.60
2018-08-04T11:06:44.688Z,4.20
2018-08-04T11:07:44.764Z,4.60
2018-08-04T11:08:44.841Z,4.60
2018-08-04T11:09:44.917Z,4.60
2018-08-04T11:10:44.996Z,4.40
2018-08-04T11:11:45.076Z,4.40
2018-08-04T11:12:45.148Z,4.60
2018-08-04T11:13:45.225Z,4.90
2018-08-04T11:14:45.301Z,4.50
2018-08-04T11:15:45.381Z,4.90
2018-08-04T11:16:45.455Z,4.50
2018-08-04T11:17:45.534Z,4.80
2018-08-04T11:18:45.610Z,4.60
2018-08-04T11:19:45.687Z,4.40
2018-08-04T11:20:45.763Z,4.50
2018-08-04T11:21:45.841Z,4.40
2018-08-04T11:22:45.919Z,4.90
2018-08-04T11:23:45.995Z,4.70
2018-08-04T11:24:46.073Z,5.40
2018-08-04T11:25:46.150Z,4.60
2018-08-04T11:26:46.227Z,5.10
2018-08-04T11:27:46.304Z,4.20
2018-08-04T11:28:46.383Z,4.40
2018-08-04T11:29:46.459Z,4.80
2018-08-04T11:30:46.580Z,4.70
2018-08-04T11:31:46.614Z,4.80
2018-08-04T11:32:46.690Z,4.70
2018-08-04T11:33:46.768Z,4.90
2018-08-04T11:34:46.847Z,4.60
2018-08-04T11:35:46.924Z,4.60
2018-08-04T11:36:47.000Z,4.50
2018-08-04T11:37:47.110Z,4.50
2018-08-04T11:38:47.155Z,4.70
2018-08-04T11:39:48.035Z,4.40
2018-08-04T11:40:47.311Z,4.70
2018-08-04T11:41:47.387Z,4.60
2018-08-04T11:42:47.465Z,4.70
2018-08-04T11:43:47.543Z,4.70
2018-08-04T11:44:47.620Z,4.50
2018-08-04T11:45:47.696Z,4.80
2018-08-04T11:46:47.775Z,4.80
2018-08-04T11:47:47.853Z,4.00
2018-08-04T11:48:47.928Z,4.90
2018-08-04T11:49:48.006Z,4.80
2018-08-04T11:50:48.086Z,4.70
2018-08-04T11:51:48.161Z,4.70
2018-08-04T11:52:48.237Z,4.60
2018-08-04T11:53:48.318Z,4.60
2018-08-04T11:54:48.440Z,4.90
2018-08-04T11:55:48.470Z,4.60
2018-08-04T11:56:48.549Z,4.80
2018-08-04T11:57:48.625Z,4.80
2018-08-04T11:58:48.702Z,4.90
2018-08-04T11:59:48.780Z,4.80
2018-08-04T12:00:48.857Z,4.90
2018-08-04T12:01:48.966Z,4.50
2018-08-04T12:02:49.013Z,4.60
2018-08-04T12:03:49.090Z,4.70
2018-08-04T12:04:49.417Z,5.10
2018-08-04T12:05:49.247Z,4.50
2018-08-04T12:06:49.327Z,4.60
2018-08-04T12:07:49.401Z,4.80
2018-08-04T12:08:49.476Z,4.70
2018-08-04T12:09:49.556Z,5.10
2018-08-04T12:10:49.643Z,4.60
2018-08-04T12:11:49.711Z,4.60
2018-08-04T12:12:49.787Z,4.90
2018-08-04T12:13:49.864Z,5.10
2018-08-04T12:14:49.944Z,5.10
2018-08-04T12:15:50.021Z,5.00
2018-08-04T12:16:50.096Z,4.90
2018-08-04T12:17:50.175Z,4.60
2018-08-04T12:18:50.252Z,5.10
2018-08-04T12:19:50.337Z,4.90
2018-08-04T12:20:50.408Z,4.50
2018-08-04T12:21:50.485Z,4.80
2018-08-04T12:22:50.563Z,5.00
2018-08-04T12:23:50.642Z,4.80
2018-08-04T12:24:50.719Z,4.90
2018-08-04T12:25:50.797Z,5.10
2018-08-04T12:26:50.875Z,4.90
2018-08-04T12:27:50.954Z,4.70
2018-08-04T12:28:51.032Z,4.60
2018-08-04T12:29:51.108Z,4.80
2018-08-04T12:30:51.188Z,4.90
2018-08-04T12:31:51.267Z,4.80
2018-08-04T12:32:51.343Z,4.80
2018-08-04T12:33:51.423Z,4.60
2018-08-04T12:34:51.500Z,4.90
2018-08-04T12:35:51.578Z,4.90
2018-08-04T12:36:51.656Z,5.10
2018-08-04T12:37:51.736Z,5.20
2018-08-04T12:38:52.122Z,5.10
2018-08-04T12:39:51.890Z,5.00
2018-08-04T12:40:51.969Z,4.90
2018-08-04T12:41:52.049Z,5.00
2018-08-04T12:42:52.127Z,5.10
2018-08-04T12:43:52.204Z,5.10
2018-08-04T12:44:52.282Z,5.20
2018-08-04T12:45:52.361Z,4.90
2018-08-04T12:46:52.439Z,5.10
2018-08-04T12:47:52.517Z,5.10
2018-08-04T12:48:52.598Z,4.80
2018-08-04T12:49:52.822Z,4.80
2018-08-04T12:50:52.750Z,4.80
2018-08-04T12:51:52.843Z,5.30
2018-08-04T12:52:52.904Z,5.00
2018-08-04T12:53:52.980Z,5.30
2018-08-04T12:54:53.057Z,5.20
2018-08-04T12:55:53.133Z,5.40
2018-08-04T12:56:53.209Z,5.20
2018-08-04T12:57:53.285Z,5.00
2018-08-04T12:58:53.361Z,5.50
2018-08-04T12:59:53.437Z,5.20
2018-08-04T13:00:53.513Z,5.20
2018-08-04T13:01:54.258Z,5.30
2018-08-04T13:02:53.665Z,5.50
2018-08-04T13:03:53.742Z,5.50
2018-08-04T13:04:53.816Z,5.40
2018-08-04T13:05:53.892Z,4.90
2018-08-04T13:06:53.967Z,5.30
2018-08-04T13:07:54.044Z,5.10
2018-08-04T13:08:54.135Z,5.10
2018-08-04T13:09:54.199Z,5.00
2018-08-04T13:10:54.272Z,5.40
2018-08-04T13:11:54.384Z,5.50
2018-08-04T13:12:54.422Z,5.10
2018-08-04T13:13:54.498Z,5.10
2018-08-04T13:14:54.573Z,5.30
2018-08-04T13:15:54.653Z,5.50
2018-08-04T13:16:54.724Z,5.20
2018-08-04T13:17:54.803Z,5.80
2018-08-04T13:18:54.876Z,5.30
2018-08-04T13:19:54.953Z,5.50